createdAt,value
2017-06-24T00:01:13.905Z,0
2017-06-24T00:02:35.735Z,0
2017-06-24T00:03:58.478Z,0
2017-06-24T00:05:20.919Z,0
2017-06-24T00:06:43.420Z,0
2017-06-24T00:08:05.547Z,0
2017-06-24T00:09:28.023Z,0
2017-06-24T00:10:50.238Z,0
2017-06-24T00:12:11.482Z,0
2017-06-24T00:13:33.591Z,0
2017-06-24T00:14:56.408Z,0
2017-06-24T00:16:17.912Z,0
2017-06-24T00:17:39.425Z,0
2017-06-24T00:19:01.548Z,0
2017-06-24T00:20:23.677Z,0
2017-06-24T00:21:45.504Z,0
2017-06-24T00:23:07.318Z,0
2017-06-24T00:24:29.571Z,0
2017-06-24T00:25:52.048Z,0
2017-06-24T00:27:14.251Z,0
2017-06-24T00:28:36.378Z,0
2017-06-24T00:29:58.593Z,0
2017-06-24T00:31:21.056Z,0
2017-06-24T00:32:42.904Z,0
2017-06-24T00:34:05.020Z,0
2017-06-24T00:35:26.876Z,0
2017-06-24T00:36:49.331Z,0
2017-06-24T00:38:11.229Z,0
2017-06-24T00:39:33.161Z,0
2017-06-24T00:40:55.374Z,0
2017-06-24T00:42:18.184Z,0
2017-06-24T00:43:40.307Z,0
2017-06-24T00:45:02.652Z,0
2017-06-24T00:46:24.462Z,0
2017-06-24T00:47:46.944Z,0
2017-06-24T00:49:09.510Z,0
2017-06-24T00:50:31.953Z,0
2017-06-24T00:51:54.100Z,0
2017-06-24T00:53:17.003Z,0
2017-06-24T00:54:39.109Z,0
2017-06-24T00:56:01.579Z,0
2017-06-24T00:57:24.032Z,0
2017-06-24T00:58:46.484Z,0
2017-06-24T01:00:07.814Z,0
2017-06-24T01:01:29.924Z,0
2017-06-24T01:02:52.347Z,0
2017-06-24T01:04:14.684Z,0
2017-06-24T01:05:36.811Z,0
2017-06-24T01:06:59.043Z,0
2017-06-24T01:08:20.886Z,0
2017-06-24T01:09:43.414Z,0
2017-06-24T01:11:05.936Z,0
2017-06-24T01:12:27.740Z,0
2017-06-24T01:13:49.857Z,0
2017-06-24T01:15:11.896Z,0
2017-06-24T01:16:34.322Z,0
2017-06-24T01:17:56.428Z,0
2017-06-24T01:19:18.586Z,0
2017-06-24T01:20:40.643Z,0
2017-06-24T01:22:02.771Z,0
2017-06-24T01:23:24.592Z,0
2017-06-24T01:24:46.396Z,0
2017-06-24T01:26:08.345Z,0
2017-06-24T01:27:30.789Z,0
2017-06-24T01:28:52.922Z,0
2017-06-24T01:30:15.072Z,0
2017-06-24T01:31:37.240Z,0
2017-06-24T01:32:59.367Z,0
2017-06-24T01:34:21.272Z,0
2017-06-24T01:35:43.123Z,0
2017-06-24T01:37:05.985Z,0
2017-06-24T01:38:28.123Z,0
2017-06-24T01:39:50.263Z,0
2017-06-24T01:41:12.369Z,0
2017-06-24T01:42:34.906Z,0
2017-06-24T01:43:56.743Z,0
2017-06-24T01:45:18.563Z,0
2017-06-24T01:46:40.682Z,0
2017-06-24T01:48:03.045Z,0
2017-06-24T01:49:25.502Z,0
2017-06-24T01:50:47.634Z,0
2017-06-24T01:52:10.072Z,0
2017-06-24T01:53:32.178Z,0
2017-06-24T01:54:53.663Z,0
2017-06-24T01:56:15.793Z,0
2017-06-24T01:57:37.973Z,0
2017-06-24T01:59:00.723Z,0
2017-06-24T02:00:23.194Z,0
2017-06-24T02:01:45.632Z,0
2017-06-24T02:03:08.163Z,0
2017-06-24T02:04:30.632Z,0
2017-06-24T02:05:52.511Z,0
2017-06-24T02:07:14.763Z,0
2017-06-24T02:08:36.365Z,0
2017-06-24T02:09:58.734Z,0
2017-06-24T02:11:20.893Z,0
2017-06-24T02:12:42.074Z,0
2017-06-24T02:14:03.595Z,0
2017-06-24T02:15:25.738Z,0
2017-06-24T02:16:47.860Z,0
2017-06-24T02:18:10.280Z,0
2017-06-24T02:19:32.082Z,0
2017-06-24T02:20:54.345Z,0
2017-06-24T02:22:16.758Z,0
2017-06-24T02:23:38.873Z,4
2017-06-24T02:25:00.682Z,4
2017-06-24T02:26:23.146Z,4
2017-06-24T02:27:45.047Z,0
2017-06-24T02:29:06.671Z,4
2017-06-24T02:30:28.896Z,4
2017-06-24T02:31:51.404Z,8
2017-06-24T02:33:13.633Z,4
2017-06-24T02:34:36.152Z,8
2017-06-24T02:35:58.068Z,8
2017-06-24T02:37:20.201Z,12
2017-06-24T02:38:42.056Z,12
2017-06-24T02:40:04.273Z,12
2017-06-24T02:41:25.768Z,16
2017-06-24T02:42:47.599Z,20
2017-06-24T02:44:10.153Z,24
2017-06-24T02:45:32.036Z,24
2017-06-24T02:46:53.853Z,28
2017-06-24T02:48:16.092Z,28
2017-06-24T02:49:37.943Z,28
2017-06-24T02:51:00.174Z,32
2017-06-24T02:52:22.359Z,36
2017-06-24T02:53:44.480Z,40
2017-06-24T02:55:05.963Z,44
2017-06-24T02:56:28.395Z,40
2017-06-24T02:57:50.638Z,36
2017-06-24T02:59:13.053Z,36
2017-06-24T03:00:34.871Z,36
2017-06-24T03:01:57.322Z,44
2017-06-24T03:03:19.563Z,48
2017-06-24T03:04:41.408Z,52
2017-06-24T03:06:02.958Z,60
2017-06-24T03:07:24.798Z,72
2017-06-24T03:08:46.917Z,80
2017-06-24T03:10:08.812Z,92
2017-06-24T03:11:31.243Z,104
2017-06-24T03:12:53.046Z,104
2017-06-24T03:14:15.492Z,108
2017-06-24T03:15:37.037Z,128
2017-06-24T03:16:58.576Z,128
2017-06-24T03:18:20.794Z,120
2017-06-24T03:19:43.291Z,104
2017-06-24T03:21:04.948Z,96
2017-06-24T03:22:27.192Z,104
2017-06-24T03:23:49.041Z,116
2017-06-24T03:25:11.486Z,136
2017-06-24T03:26:33.962Z,148
2017-06-24T03:27:55.176Z,184
2017-06-24T03:29:17.691Z,244
2017-06-24T03:30:39.792Z,272
2017-06-24T03:32:01.890Z,284
2017-06-24T03:33:23.702Z,328
2017-06-24T03:34:45.494Z,312
2017-06-24T03:36:07.301Z,408
2017-06-24T03:37:29.051Z,464
2017-06-24T03:38:51.187Z,516
2017-06-24T03:40:13.316Z,644
2017-06-24T03:41:35.451Z,672
2017-06-24T03:42:57.934Z,672
2017-06-24T03:44:20.366Z,744
2017-06-24T03:45:42.186Z,792
2017-06-24T03:47:03.983Z,664
2017-06-24T03:48:26.138Z,664
2017-06-24T03:49:47.693Z,692
2017-06-24T03:51:09.189Z,612
2017-06-24T03:52:30.996Z,488
2017-06-24T03:53:53.657Z,456
2017-06-24T03:55:15.454Z,456
2017-06-24T03:56:37.553Z,500
2017-06-24T03:58:00.002Z,544
2017-06-24T03:59:21.477Z,660
2017-06-24T04:00:43.714Z,752
2017-06-24T04:02:06.138Z,748
2017-06-24T04:03:28.249Z,704
2017-06-24T04:04:50.732Z,688
2017-06-24T04:06:12.854Z,728
2017-06-24T04:07:35.433Z,820
2017-06-24T04:08:57.224Z,964
2017-06-24T04:10:19.937Z,988
2017-06-24T04:11:41.421Z,824
2017-06-24T04:13:03.724Z,788
2017-06-24T04:14:25.937Z,852
2017-06-24T04:15:48.363Z,800
2017-06-24T04:17:10.501Z,868
2017-06-24T04:18:32.931Z,964
2017-06-24T04:19:54.733Z,812
2017-06-24T04:21:17.323Z,732
2017-06-24T04:22:39.448Z,864
2017-06-24T04:24:01.676Z,968
2017-06-24T04:25:23.793Z,1068
2017-06-24T04:26:46.391Z,1084
2017-06-24T04:28:08.843Z,1312
2017-06-24T04:29:31.093Z,1604
2017-06-24T04:30:53.197Z,1816
2017-06-24T04:32:15.763Z,2052
2017-06-24T04:33:37.384Z,2200
2017-06-24T04:34:59.502Z,1760
2017-06-24T04:36:21.459Z,1572
2017-06-24T04:37:43.883Z,1544
2017-06-24T04:39:05.703Z,1328
2017-06-24T04:40:27.506Z,1212
2017-06-24T04:41:48.997Z,1340
2017-06-24T04:43:11.563Z,1340
2017-06-24T04:44:32.482Z,1560
2017-06-24T04:45:54.912Z,1228
2017-06-24T04:47:16.728Z,1036
2017-06-24T04:48:39.171Z,1168
2017-06-24T04:50:01.733Z,1176
2017-06-24T04:51:22.923Z,1276
2017-06-24T04:52:44.734Z,1724
2017-06-24T04:54:06.954Z,1776
2017-06-24T04:55:29.063Z,1508
2017-06-24T04:56:50.242Z,1300
2017-06-24T04:58:12.844Z,1636
2017-06-24T04:59:34.792Z,1864
2017-06-24T05:00:57.058Z,1968
2017-06-24T05:02:19.502Z,1456
2017-06-24T05:03:41.596Z,1276
2017-06-24T05:05:04.324Z,1308
2017-06-24T05:06:26.873Z,1460
2017-06-24T05:07:48.999Z,1988
2017-06-24T05:09:10.844Z,2328
2017-06-24T05:10:33.277Z,2028
2017-06-24T05:11:55.404Z,2272
2017-06-24T05:13:17.597Z,2496
2017-06-24T05:14:39.714Z,2536
2017-06-24T05:16:02.123Z,2460
2017-06-24T05:17:24.285Z,2316
2017-06-24T05:18:46.783Z,2276
2017-06-24T05:20:08.915Z,2148
2017-06-24T05:21:31.395Z,2164
2017-06-24T05:22:53.344Z,2100
2017-06-24T05:24:15.225Z,2164
2017-06-24T05:25:37.084Z,2164
2017-06-24T05:26:59.057Z,1864
2017-06-24T05:28:20.551Z,1792
2017-06-24T05:29:42.716Z,1760
2017-06-24T05:31:05.154Z,1632
2017-06-24T05:32:26.651Z,1512
2017-06-24T05:33:49.084Z,1572
2017-06-24T05:35:10.900Z,1624
2017-06-24T05:36:33.015Z,1560
2017-06-24T05:37:55.126Z,2340
2017-06-24T05:39:16.911Z,2712
2017-06-24T05:40:38.734Z,2676
2017-06-24T05:42:00.913Z,2204
2017-06-24T05:43:22.974Z,2220
2017-06-24T05:44:44.864Z,2620
2017-06-24T05:46:07.394Z,3088
2017-06-24T05:47:29.494Z,3400
2017-06-24T05:48:52.096Z,3584
2017-06-24T05:50:14.214Z,3780
2017-06-24T05:51:36.403Z,3856
2017-06-24T05:52:57.900Z,3344
2017-06-24T05:54:20.034Z,3356
2017-06-24T05:55:41.836Z,3108
2017-06-24T05:57:03.993Z,3208
2017-06-24T05:58:25.515Z,2920
2017-06-24T05:59:48.298Z,2684
2017-06-24T06:01:10.125Z,2520
2017-06-24T06:02:32.261Z,2900
2017-06-24T06:03:54.368Z,3172
2017-06-24T06:05:16.744Z,2744
2017-06-24T06:06:38.876Z,2924
2017-06-24T06:08:01.368Z,3760
2017-06-24T06:09:23.480Z,4748
2017-06-24T06:10:46.302Z,5328
2017-06-24T06:12:08.725Z,5604
2017-06-24T06:13:31.294Z,4788
2017-06-24T06:14:53.750Z,3892
2017-06-24T06:16:15.785Z,3356
2017-06-24T06:17:37.895Z,3536
2017-06-24T06:19:00.026Z,3740
2017-06-24T06:20:22.142Z,4036
2017-06-24T06:21:44.624Z,4016
2017-06-24T06:23:06.893Z,4092
2017-06-24T06:24:29.133Z,4168
2017-06-24T06:25:51.363Z,5176
2017-06-24T06:27:13.804Z,4484
2017-06-24T06:28:35.606Z,4604
2017-06-24T06:29:57.094Z,5316
2017-06-24T06:31:19.246Z,5296
2017-06-24T06:32:41.345Z,6376
2017-06-24T06:34:03.675Z,4832
2017-06-24T06:35:25.814Z,5196
2017-06-24T06:36:47.613Z,4188
2017-06-24T06:38:09.359Z,4548
2017-06-24T06:39:31.493Z,5752
2017-06-24T06:40:53.361Z,6724
2017-06-24T06:42:15.503Z,5612
2017-06-24T06:43:38.135Z,5524
2017-06-24T06:44:59.945Z,4876
2017-06-24T06:46:21.775Z,6332
2017-06-24T06:47:43.889Z,6480
2017-06-24T06:49:06.434Z,5108
2017-06-24T06:50:28.550Z,4788
2017-06-24T06:51:50.375Z,4924
2017-06-24T06:53:12.173Z,7248
2017-06-24T06:54:34.651Z,8048
2017-06-24T06:55:57.099Z,7072
2017-06-24T06:57:19.782Z,6616
2017-06-24T06:58:42.245Z,8104
2017-06-24T07:00:04.776Z,7556
2017-06-24T07:01:27.238Z,7624
2017-06-24T07:02:49.559Z,8312
2017-06-24T07:04:11.880Z,7188
2017-06-24T07:05:34.275Z,7080
2017-06-24T07:06:56.095Z,8848
2017-06-24T07:08:18.250Z,7572
2017-06-24T07:09:40.446Z,9280
2017-06-24T07:11:02.264Z,9392
2017-06-24T07:12:24.091Z,8120
2017-06-24T07:13:46.650Z,7744
2017-06-24T07:15:09.090Z,5764
2017-06-24T07:16:31.555Z,6040
2017-06-24T07:17:54.012Z,9612
2017-06-24T07:19:16.167Z,10052
2017-06-24T07:20:38.304Z,9944
2017-06-24T07:22:00.994Z,9856
2017-06-24T07:23:22.846Z,8928
2017-06-24T07:24:44.743Z,6700
2017-06-24T07:26:06.886Z,6772
2017-06-24T07:27:29.715Z,8132
2017-06-24T07:28:51.544Z,7996
2017-06-24T07:30:13.995Z,10628
2017-06-24T07:31:36.152Z,11340
2017-06-24T07:32:58.586Z,10876
2017-06-24T07:34:21.033Z,13520
2017-06-24T07:35:43.150Z,13284
2017-06-24T07:37:05.907Z,14956
2017-06-24T07:38:28.130Z,16736
2017-06-24T07:39:49.627Z,16344
2017-06-24T07:41:11.444Z,15480
2017-06-24T07:42:33.395Z,15208
2017-06-24T07:43:55.861Z,17056
2017-06-24T07:45:18.013Z,17728
2017-06-24T07:46:40.133Z,18080
2017-06-24T07:48:02.467Z,19712
2017-06-24T07:49:25.165Z,19456
2017-06-24T07:50:47.343Z,20032
2017-06-24T07:52:09.560Z,19584
2017-06-24T07:53:31.375Z,17856
2017-06-24T07:54:53.884Z,17440
2017-06-24T07:56:15.699Z,17280
2017-06-24T07:57:37.205Z,16736
2017-06-24T07:58:59.354Z,13804
2017-06-24T08:00:22.058Z,12124
2017-06-24T08:01:44.190Z,13144
2017-06-24T08:03:06.761Z,14560
2017-06-24T08:04:28.923Z,16472
2017-06-24T08:05:51.432Z,14556
2017-06-24T08:07:13.934Z,14320
2017-06-24T08:08:36.235Z,12764
2017-06-24T08:09:57.741Z,14296
2017-06-24T08:11:20.585Z,13296
2017-06-24T08:12:42.494Z,11804
2017-06-24T08:14:04.010Z,12952
2017-06-24T08:15:26.483Z,13752
2017-06-24T08:16:48.295Z,18528
2017-06-24T08:18:10.473Z,20512
2017-06-24T08:19:32.266Z,18784
2017-06-24T08:20:54.704Z,14744
2017-06-24T08:22:16.551Z,12960
2017-06-24T08:23:38.679Z,10612
2017-06-24T08:25:00.810Z,10032
2017-06-24T08:26:22.647Z,9736
2017-06-24T08:27:45.447Z,8696
2017-06-24T08:29:07.273Z,9052
2017-06-24T08:30:28.796Z,12880
2017-06-24T08:31:50.937Z,11340
2017-06-24T08:33:13.678Z,10356
2017-06-24T08:34:35.629Z,10232
2017-06-24T08:35:57.678Z,8048
2017-06-24T08:37:19.524Z,9604
2017-06-24T08:38:41.749Z,12420
2017-06-24T08:40:03.588Z,14052
2017-06-24T08:41:26.148Z,14144
2017-06-24T08:42:47.655Z,18560
2017-06-24T08:44:10.146Z,21152
2017-06-24T08:45:32.287Z,19936
2017-06-24T08:46:54.483Z,12892
2017-06-24T08:48:16.003Z,13800
2017-06-24T08:49:38.714Z,11072
2017-06-24T08:51:01.164Z,13700
2017-06-24T08:52:23.422Z,8388
2017-06-24T08:53:45.594Z,6784
2017-06-24T08:55:07.651Z,10284
2017-06-24T08:56:30.085Z,13488
2017-06-24T08:57:52.549Z,13408
2017-06-24T08:59:14.781Z,13464
2017-06-24T09:00:37.203Z,16136
2017-06-24T09:01:59.372Z,17408
2017-06-24T09:03:21.815Z,20864
2017-06-24T09:04:44.013Z,19616
2017-06-24T09:06:06.849Z,19648
2017-06-24T09:07:28.703Z,20288
2017-06-24T09:08:51.154Z,17248
2017-06-24T09:10:13.341Z,17312
2017-06-24T09:11:36.224Z,11284
2017-06-24T09:12:58.666Z,15528
2017-06-24T09:14:21.094Z,17376
2017-06-24T09:15:42.595Z,11612
2017-06-24T09:17:05.510Z,13700
2017-06-24T09:18:27.803Z,14112
2017-06-24T09:19:49.947Z,14344
2017-06-24T09:21:12.396Z,8328
2017-06-24T09:22:34.833Z,13428
2017-06-24T09:23:56.676Z,16348
2017-06-24T09:25:19.247Z,13872
2017-06-24T09:26:41.472Z,15512
2017-06-24T09:28:04.230Z,12548
2017-06-24T09:29:26.052Z,17280
2017-06-24T09:30:47.872Z,17408
2017-06-24T09:32:10.016Z,12696
2017-06-24T09:33:32.453Z,11604
2017-06-24T09:34:54.582Z,11152
2017-06-24T09:36:17.116Z,16928
2017-06-24T09:37:39.574Z,11436
2017-06-24T09:39:02.339Z,10644
2017-06-24T09:40:24.786Z,14116
2017-06-24T09:41:46.922Z,15580
2017-06-24T09:43:08.785Z,10584
2017-06-24T09:44:31.284Z,12376
2017-06-24T09:45:53.732Z,12044
2017-06-24T09:47:15.883Z,14300
2017-06-24T09:48:38.054Z,22336
2017-06-24T09:50:00.162Z,16864
2017-06-24T09:51:22.277Z,16032
2017-06-24T09:52:44.742Z,15732
2017-06-24T09:54:07.200Z,17824
2017-06-24T09:55:29.312Z,21568
2017-06-24T09:56:51.286Z,18080
2017-06-24T09:58:12.777Z,13760
2017-06-24T09:59:34.593Z,13952
2017-06-24T10:00:57.081Z,18016
2017-06-24T10:02:19.224Z,14368
2017-06-24T10:03:41.397Z,15028
2017-06-24T10:05:03.858Z,13984
2017-06-24T10:06:26.466Z,17568
2017-06-24T10:07:48.924Z,14852
2017-06-24T10:09:11.393Z,12408
2017-06-24T10:10:33.876Z,13124
2017-06-24T10:11:55.741Z,12376
2017-06-24T10:13:17.242Z,14848
2017-06-24T10:14:39.504Z,12492
2017-06-24T10:16:01.338Z,11484
2017-06-24T10:17:23.961Z,10172
2017-06-24T10:18:46.420Z,12600
2017-06-24T10:20:08.235Z,16152
2017-06-24T10:21:30.342Z,19232
2017-06-24T10:22:52.822Z,17952
2017-06-24T10:24:14.972Z,14072
2017-06-24T10:25:36.808Z,12056
2017-06-24T10:26:58.931Z,11328
2017-06-24T10:28:21.693Z,11888
2017-06-24T10:29:43.610Z,12988
2017-06-24T10:31:06.121Z,8464
2017-06-24T10:32:27.631Z,9592
2017-06-24T10:33:49.693Z,8940
2017-06-24T10:35:12.122Z,10708
2017-06-24T10:36:33.942Z,8648
2017-06-24T10:37:56.135Z,8956
2017-06-24T10:39:18.843Z,7616
2017-06-24T10:40:41.086Z,7804
2017-06-24T10:42:03.536Z,8824
2017-06-24T10:43:26.123Z,8628
2017-06-24T10:44:48.610Z,8816
2017-06-24T10:46:10.484Z,7772
2017-06-24T10:47:32.617Z,8816
2017-06-24T10:48:54.114Z,8636
2017-06-24T10:50:16.455Z,9468
2017-06-24T10:51:38.728Z,8732
2017-06-24T10:53:00.885Z,8616
2017-06-24T10:54:22.721Z,7008
2017-06-24T10:55:45.412Z,7560
2017-06-24T10:57:07.618Z,10068
2017-06-24T10:58:29.735Z,10092
2017-06-24T10:59:51.916Z,10460
2017-06-24T11:01:14.820Z,10132
2017-06-24T11:02:36.964Z,10092
2017-06-24T11:03:59.433Z,8940
2017-06-24T11:05:21.250Z,9444
2017-06-24T11:06:43.892Z,14772
2017-06-24T11:08:06.383Z,12344
2017-06-24T11:09:28.534Z,10416
2017-06-24T11:10:50.429Z,12224
2017-06-24T11:12:12.870Z,17888
2017-06-24T11:13:35.019Z,21888
2017-06-24T11:14:57.168Z,16928
2017-06-24T11:16:19.304Z,12424
2017-06-24T11:17:41.712Z,13196
2017-06-24T11:19:03.864Z,15924
2017-06-24T11:20:26.385Z,12636
2017-06-24T11:21:47.905Z,13904
2017-06-24T11:23:10.373Z,16260
2017-06-24T11:24:31.891Z,15108
2017-06-24T11:25:54.359Z,19488
2017-06-24T11:27:16.813Z,18528
2017-06-24T11:28:39.230Z,19488
2017-06-24T11:30:01.398Z,15464
2017-06-24T11:31:23.580Z,13944
2017-06-24T11:32:45.728Z,13708
2017-06-24T11:34:08.542Z,11760
2017-06-24T11:35:30.344Z,11836
2017-06-24T11:36:52.499Z,9308
2017-06-24T11:38:14.952Z,11860
2017-06-24T11:39:37.123Z,11536
2017-06-24T11:40:59.563Z,10740
2017-06-24T11:42:21.787Z,12104
2017-06-24T11:43:44.226Z,12072
2017-06-24T11:45:06.751Z,15308
2017-06-24T11:46:28.267Z,13164
2017-06-24T11:47:50.420Z,13104
2017-06-24T11:49:12.699Z,11292
2017-06-24T11:50:34.886Z,13436
2017-06-24T11:51:57.007Z,12640
2017-06-24T11:53:18.840Z,9804
2017-06-24T11:54:41.290Z,9944
2017-06-24T11:56:03.994Z,8120
2017-06-24T11:57:26.233Z,9180
2017-06-24T11:58:48.053Z,9876
2017-06-24T12:00:10.906Z,7760
2017-06-24T12:01:33.615Z,6704
2017-06-24T12:02:55.462Z,6120
2017-06-24T12:04:18.069Z,5948
2017-06-24T12:05:40.635Z,6612
2017-06-24T12:07:03.241Z,8244
2017-06-24T12:08:25.434Z,7300
2017-06-24T12:09:47.883Z,8736
2017-06-24T12:11:10.131Z,8532
2017-06-24T12:12:32.574Z,8724
2017-06-24T12:13:54.712Z,10156
2017-06-24T12:15:17.197Z,7544
2017-06-24T12:16:39.332Z,8432
2017-06-24T12:18:02.213Z,9312
2017-06-24T12:19:24.681Z,10492
2017-06-24T12:20:46.823Z,12300
2017-06-24T12:22:08.683Z,12392
2017-06-24T12:23:31.548Z,11688
2017-06-24T12:24:53.390Z,10136
2017-06-24T12:26:15.297Z,16232
2017-06-24T12:27:37.550Z,16224
2017-06-24T12:28:59.740Z,25888
2017-06-24T12:30:21.861Z,23488
2017-06-24T12:31:43.684Z,16200
2017-06-24T12:33:06.124Z,16992
2017-06-24T12:34:28.824Z,21280
2017-06-24T12:35:51.078Z,18720
2017-06-24T12:37:13.312Z,12112
2017-06-24T12:38:35.444Z,9844
2017-06-24T12:39:57.618Z,16488
2017-06-24T12:41:19.860Z,17824
2017-06-24T12:42:41.992Z,17504
2017-06-24T12:44:04.463Z,17824
2017-06-24T12:45:27.001Z,23680
2017-06-24T12:46:49.471Z,17792
2017-06-24T12:48:11.646Z,12268
2017-06-24T12:49:33.461Z,11688
2017-06-24T12:50:55.910Z,11376
2017-06-24T12:52:17.400Z,8236
2017-06-24T12:53:39.728Z,7540
2017-06-24T12:55:01.863Z,6928
2017-06-24T12:56:24.344Z,7044
2017-06-24T12:57:46.808Z,14460
2017-06-24T12:59:08.953Z,11564
2017-06-24T13:00:31.106Z,10064
2017-06-24T13:01:53.663Z,10216
2017-06-24T13:03:16.121Z,9856
2017-06-24T13:04:38.065Z,8976
2017-06-24T13:06:00.543Z,14692
2017-06-24T13:07:22.910Z,12208
2017-06-24T13:08:44.741Z,13596
2017-06-24T13:10:06.912Z,15412
2017-06-24T13:11:29.060Z,14264
2017-06-24T13:12:51.237Z,11924
2017-06-24T13:14:12.717Z,12600
2017-06-24T13:15:34.534Z,19872
2017-06-24T13:16:57.023Z,23296
2017-06-24T13:18:19.722Z,25120
2017-06-24T13:19:42.175Z,19328
2017-06-24T13:21:04.343Z,24736
2017-06-24T13:22:26.547Z,25280
2017-06-24T13:23:48.411Z,18496
2017-06-24T13:25:10.556Z,21120
2017-06-24T13:26:32.797Z,20448
2017-06-24T13:27:55.251Z,24000
2017-06-24T13:29:17.695Z,22080
2017-06-24T13:30:39.892Z,21248
2017-06-24T13:32:02.157Z,16224
2017-06-24T13:33:24.302Z,14936
2017-06-24T13:34:46.548Z,16544
2017-06-24T13:36:08.705Z,21920
2017-06-24T13:37:31.218Z,19520
2017-06-24T13:38:53.682Z,18080
2017-06-24T13:40:15.752Z,17568
2017-06-24T13:41:37.921Z,17728
2017-06-24T13:43:00.065Z,19168
2017-06-24T13:44:22.546Z,22528
2017-06-24T13:45:45.301Z,23520
2017-06-24T13:47:07.094Z,15700
2017-06-24T13:48:29.563Z,15868
2017-06-24T13:49:51.928Z,14876
2017-06-24T13:51:14.695Z,17760
2017-06-24T13:52:36.548Z,21280
2017-06-24T13:53:58.357Z,24608
2017-06-24T13:55:19.874Z,19936
2017-06-24T13:56:43.109Z,14912
2017-06-24T13:58:05.582Z,14600
2017-06-24T13:59:28.199Z,14208
2017-06-24T14:00:50.662Z,15880
2017-06-24T14:02:12.527Z,18080
2017-06-24T14:03:34.975Z,19040
2017-06-24T14:04:57.120Z,18048
2017-06-24T14:06:19.572Z,14520
2017-06-24T14:07:42.042Z,13424
2017-06-24T14:09:04.481Z,10280
2017-06-24T14:10:27.017Z,9640
2017-06-24T14:11:49.502Z,10644
2017-06-24T14:13:11.345Z,12280
2017-06-24T14:14:33.506Z,12512
2017-06-24T14:15:55.718Z,9660
2017-06-24T14:17:18.267Z,9316
2017-06-24T14:18:40.642Z,10648
2017-06-24T14:20:03.102Z,11212
2017-06-24T14:21:25.247Z,13428
2017-06-24T14:22:47.403Z,10408
2017-06-24T14:24:09.788Z,12012
2017-06-24T14:25:32.268Z,11692
2017-06-24T14:26:54.760Z,10312
2017-06-24T14:28:16.587Z,9744
2017-06-24T14:29:38.394Z,9932
2017-06-24T14:31:00.857Z,8848
2017-06-24T14:32:22.687Z,8000
2017-06-24T14:33:44.824Z,8248
2017-06-24T14:35:07.607Z,7268
2017-06-24T14:36:30.105Z,5872
2017-06-24T14:37:51.737Z,6000
2017-06-24T14:39:13.869Z,10424
2017-06-24T14:40:36.276Z,14200
2017-06-24T14:41:58.217Z,10860
2017-06-24T14:43:20.235Z,12940
2017-06-24T14:44:42.686Z,16224
2017-06-24T14:46:05.487Z,23136
2017-06-24T14:47:27.872Z,18400
2017-06-24T14:48:50.146Z,14860
2017-06-24T14:50:12.311Z,14864
2017-06-24T14:51:34.848Z,14672
2017-06-24T14:52:57.310Z,16152
2017-06-24T14:54:19.752Z,13956
2017-06-24T14:55:42.336Z,11820
2017-06-24T14:57:04.473Z,11308
2017-06-24T14:58:26.391Z,12644
2017-06-24T14:59:48.924Z,13432
2017-06-24T15:01:11.076Z,14836
2017-06-24T15:02:33.643Z,15552
2017-06-24T15:03:55.474Z,14760
2017-06-24T15:05:17.773Z,14724
2017-06-24T15:06:40.314Z,13880
2017-06-24T15:08:03.204Z,16128
2017-06-24T15:09:25.106Z,19360
2017-06-24T15:10:47.253Z,15384
2017-06-24T15:12:09.445Z,11692
2017-06-24T15:13:31.594Z,10984
2017-06-24T15:14:54.070Z,14340
2017-06-24T15:16:16.211Z,12960
2017-06-24T15:17:38.835Z,10868
2017-06-24T15:19:01.242Z,10160
2017-06-24T15:20:23.092Z,10652
2017-06-24T15:21:44.975Z,11064
2017-06-24T15:23:07.474Z,9048
2017-06-24T15:24:30.204Z,8728
2017-06-24T15:25:52.706Z,10184
2017-06-24T15:27:14.939Z,12200
2017-06-24T15:28:37.075Z,13204
2017-06-24T15:29:58.816Z,13912
2017-06-24T15:31:20.932Z,12924
2017-06-24T15:32:43.550Z,11088
2017-06-24T15:34:05.716Z,8792
2017-06-24T15:35:27.886Z,8480
2017-06-24T15:36:50.331Z,8828
2017-06-24T15:38:12.617Z,8660
2017-06-24T15:39:34.904Z,7532
2017-06-24T15:40:57.288Z,6476
2017-06-24T15:42:19.105Z,6212
2017-06-24T15:43:41.624Z,7180
2017-06-24T15:45:04.079Z,6720
2017-06-24T15:46:26.544Z,7656
2017-06-24T15:47:48.056Z,11480
2017-06-24T15:49:10.570Z,12116
2017-06-24T15:50:32.961Z,12880
2017-06-24T15:51:54.814Z,13144
2017-06-24T15:53:16.637Z,12660
2017-06-24T15:54:39.084Z,12680
2017-06-24T15:56:01.672Z,13100
2017-06-24T15:57:23.816Z,12584
2017-06-24T15:58:46.094Z,11860
2017-06-24T16:00:08.295Z,12588
2017-06-24T16:01:30.444Z,12256
2017-06-24T16:02:52.695Z,10716
2017-06-24T16:04:14.543Z,9440
2017-06-24T16:05:36.383Z,9212
2017-06-24T16:06:58.573Z,10740
2017-06-24T16:08:21.353Z,8888
2017-06-24T16:09:43.315Z,7312
2017-06-24T16:11:05.821Z,7112
2017-06-24T16:12:28.344Z,7008
2017-06-24T16:13:50.783Z,8012
2017-06-24T16:15:12.913Z,9164
2017-06-24T16:16:35.571Z,9476
2017-06-24T16:17:57.204Z,9816
2017-06-24T16:19:19.722Z,9240
2017-06-24T16:20:41.885Z,8432
2017-06-24T16:22:04.070Z,8856
2017-06-24T16:23:26.530Z,8912
2017-06-24T16:24:49.296Z,8876
2017-06-24T16:26:11.499Z,11224
2017-06-24T16:27:33.967Z,8924
2017-06-24T16:28:56.467Z,5440
2017-06-24T16:30:18.643Z,4468
2017-06-24T16:31:40.805Z,4100
2017-06-24T16:33:03.308Z,6204
2017-06-24T16:34:25.460Z,8420
2017-06-24T16:35:48.406Z,10124
2017-06-24T16:37:10.548Z,12380
2017-06-24T16:38:32.698Z,12724
2017-06-24T16:39:54.864Z,12380
2017-06-24T16:41:17.741Z,11820
2017-06-24T16:42:39.590Z,10360
2017-06-24T16:44:01.813Z,9232
2017-06-24T16:45:23.723Z,8732
2017-06-24T16:46:46.243Z,9888
2017-06-24T16:48:08.484Z,10532
2017-06-24T16:49:30.652Z,10624
2017-06-24T16:50:53.141Z,11480
2017-06-24T16:52:15.645Z,11748
2017-06-24T16:53:38.162Z,11412
2017-06-24T16:54:59.983Z,10480
2017-06-24T16:56:21.816Z,10404
2017-06-24T16:57:43.705Z,11416
2017-06-24T16:59:06.208Z,11540
2017-06-24T17:00:28.377Z,12152
2017-06-24T17:01:50.586Z,11192
2017-06-24T17:03:13.084Z,8976
2017-06-24T17:04:35.545Z,7420
2017-06-24T17:05:57.790Z,7344
2017-06-24T17:07:20.286Z,7236
2017-06-24T17:08:42.730Z,7996
2017-06-24T17:10:04.908Z,8376
2017-06-24T17:11:27.066Z,8188
2017-06-24T17:12:49.582Z,7748
2017-06-24T17:14:11.563Z,7520
2017-06-24T17:15:34.002Z,7824
2017-06-24T17:16:56.135Z,7636
2017-06-24T17:18:18.132Z,8188
2017-06-24T17:19:40.584Z,9292
2017-06-24T17:21:03.071Z,9516
2017-06-24T17:22:25.348Z,9440
2017-06-24T17:23:47.264Z,9424
2017-06-24T17:25:09.918Z,9156
2017-06-24T17:26:32.502Z,8976
2017-06-24T17:27:54.766Z,8848
2017-06-24T17:29:17.233Z,8720
2017-06-24T17:30:40.047Z,8600
2017-06-24T17:32:02.444Z,7968
2017-06-24T17:33:24.296Z,7196
2017-06-24T17:34:46.496Z,6348
2017-06-24T17:36:08.845Z,6368
2017-06-24T17:37:30.992Z,6384
2017-06-24T17:38:52.877Z,6184
2017-06-24T17:40:14.802Z,7428
2017-06-24T17:41:37.563Z,8200
2017-06-24T17:43:00.011Z,7932
2017-06-24T17:44:21.275Z,7676
2017-06-24T17:45:43.414Z,7428
2017-06-24T17:47:05.875Z,6940
2017-06-24T17:48:27.713Z,6596
2017-06-24T17:49:49.862Z,6620
2017-06-24T17:51:12.330Z,6580
2017-06-24T17:52:34.738Z,6724
2017-06-24T17:53:56.874Z,6604
2017-06-24T17:55:19.027Z,6008
2017-06-24T17:56:41.533Z,5736
2017-06-24T17:58:03.749Z,5256
2017-06-24T17:59:25.927Z,5212
2017-06-24T18:00:48.165Z,5076
2017-06-24T18:02:10.340Z,5016
2017-06-24T18:03:33.211Z,4824
2017-06-24T18:04:54.732Z,4580
2017-06-24T18:06:17.187Z,4312
2017-06-24T18:07:39.768Z,4248
2017-06-24T18:09:02.162Z,4256
2017-06-24T18:10:23.983Z,4292
2017-06-24T18:11:45.494Z,4468
2017-06-24T18:13:07.974Z,4648
2017-06-24T18:14:30.441Z,4556
2017-06-24T18:15:52.901Z,4352
2017-06-24T18:17:15.165Z,4192
2017-06-24T18:18:37.382Z,3828
2017-06-24T18:20:00.177Z,3964